sensor_id;sensor_type;location;lat;lon;timestamp;P1;durP1;ratioP1;P2;durP2;ratioP2
44476;SDS011;30180;44.788;10.366;2022-07-23T17:10:21;17.38;;;8.00;;
44476;SDS011;30180;44.788;10.366;2022-07-23T17:15:19;15.18;;;7.65;;
44476;SDS011;30180;44.788;10.366;2022-07-23T17:17:47;18.35;;;8.25;;
44476;SDS011;30180;44.788;10.366;2022-07-23T17:20:16;16.20;;;7.57;;
44476;SDS011;30180;44.788;10.366;2022-07-23T17:22:44;16.80;;;7.35;;
44476;SDS011;30180;44.788;10.366;2022-07-23T17:25:13;16.83;;;8.35;;
44476;SDS011;30180;44.788;10.366;2022-07-23T17:27:43;17.60;;;7.82;;
44476;SDS011;30180;44.788;10.366;2022-07-23T17:30:12;14.45;;;7.72;;
44476;SDS011;30180;44.788;10.366;2022-07-23T17:32:42;14.63;;;7.27;;
44476;SDS011;30180;44.788;10.366;2022-07-23T17:35:10;15.93;;;8.48;;
44476;SDS011;30180;44.788;10.366;2022-07-23T17:37:38;15.18;;;7.65;;
44476;SDS011;30180;44.788;10.366;2022-07-23T17:40:07;16.27;;;8.07;;
44476;SDS011;30180;44.788;10.366;2022-07-23T17:42:36;16.05;;;7.78;;
44476;SDS011;30180;44.788;10.366;2022-07-23T17:45:07;15.80;;;8.07;;
44476;SDS011;30180;44.788;10.366;2022-07-23T17:47:42;14.15;;;7.55;;
44476;SDS011;30180;44.788;10.366;2022-07-23T17:52:44;13.98;;;7.78;;
44476;SDS011;30180;44.788;10.366;2022-07-23T17:55:13;15.07;;;7.63;;
44476;SDS011;30180;44.788;10.366;2022-07-23T17:57:48;15.35;;;7.68;;
44476;SDS011;30180;44.788;10.366;2022-07-23T18:00:19;13.52;;;7.70;;
44476;SDS011;30180;44.788;10.366;2022-07-23T18:02:49;14.13;;;7.82;;
44476;SDS011;30180;44.788;10.366;2022-07-23T18:05:17;12.98;;;7.25;;
44476;SDS011;30180;44.788;10.366;2022-07-23T18:07:46;16.40;;;7.15;;
44476;SDS011;30180;44.788;10.366;2022-07-23T18:10:14;12.45;;;7.30;;
44476;SDS011;30180;44.788;10.366;2022-07-23T18:12:42;14.25;;;7.68;;
44476;SDS011;30180;44.788;10.366;2022-07-23T18:15:11;15.27;;;6.85;;
44476;SDS011;30180;44.788;10.366;2022-07-23T18:17:41;11.98;;;7.40;;
44476;SDS011;30180;44.788;10.366;2022-07-23T18:20:10;14.60;;;7.60;;
44476;SDS011;30180;44.788;10.366;2022-07-23T18:22:39;10.80;;;7.07;;
44476;SDS011;30180;44.788;10.366;2022-07-23T18:25:08;10.80;;;7.28;;
44476;SDS011;30180;44.788;10.366;2022-07-23T18:27:37;11.50;;;7.40;;
44476;SDS011;30180;44.788;10.366;2022-07-23T18:30:06;10.60;;;7.05;;
44476;SDS011;30180;44.788;10.366;2022-07-23T18:32:35;15.68;;;7.22;;
44476;SDS011;30180;44.788;10.366;2022-07-23T18:35:06;14.38;;;7.30;;
44476;SDS011;30180;44.788;10.366;2022-07-23T18:37:38;13.50;;;6.95;;
44476;SDS011;30180;44.788;10.366;2022-07-23T18:40:07;18.40;;;7.85;;
44476;SDS011;30180;44.788;10.366;2022-07-23T18:42:36;11.20;;;6.95;;
44476;SDS011;30180;44.788;10.366;2022-07-23T18:45:05;11.73;;;6.68;;
44476;SDS011;30180;44.788;10.366;2022-07-23T18:47:35;13.88;;;6.70;;
44476;SDS011;30180;44.788;10.366;2022-07-23T18:50:04;11.25;;;6.47;;
44476;SDS011;30180;44.788;10.366;2022-07-23T18:52:37;9.93;;;6.45;;
44476;SDS011;30180;44.788;10.366;2022-07-23T18:55:05;13.55;;;7.30;;
44476;SDS011;30180;44.788;10.366;2022-07-23T18:57:35;14.00;;;7.17;;
44476;SDS011;30180;44.788;10.366;2022-07-23T19:00:04;12.43;;;6.70;;
44476;SDS011;30180;44.788;10.366;2022-07-23T19:02:33;11.73;;;6.80;;
44476;SDS011;30180;44.788;10.366;2022-07-23T19:05:02;13.77;;;6.97;;
44476;SDS011;30180;44.788;10.366;2022-07-23T19:07:32;11.63;;;7.03;;
44476;SDS011;30180;44.788;10.366;2022-07-23T19:10:01;10.90;;;7.07;;
44476;SDS011;30180;44.788;10.366;2022-07-23T19:12:30;12.77;;;6.68;;
44476;SDS011;30180;44.788;10.366;2022-07-23T19:14:58;14.32;;;6.38;;
44476;SDS011;30180;44.788;10.366;2022-07-23T19:17:32;10.20;;;6.05;;
44476;SDS011;30180;44.788;10.366;2022-07-23T19:20:01;12.40;;;7.32;;
44476;SDS011;30180;44.788;10.366;2022-07-23T19:22:30;11.55;;;6.70;;
44476;SDS011;30180;44.788;10.366;2022-07-23T19:25:00;12.45;;;7.03;;
44476;SDS011;30180;44.788;10.366;2022-07-23T19:27:28;14.45;;;6.95;;
44476;SDS011;30180;44.788;10.366;2022-07-23T19:29:56;9.43;;;6.05;;
44476;SDS011;30180;44.788;10.366;2022-07-23T19:32:25;10.02;;;5.45;;
44476;SDS011;30180;44.788;10.366;2022-07-23T19:34:59;8.85;;;4.75;;
44476;SDS011;30180;44.788;10.366;2022-07-23T19:37:28;9.73;;;5.15;;
44476;SDS011;30180;44.788;10.366;2022-07-23T19:39:57;8.25;;;4.85;;
44476;SDS011;30180;44.788;10.366;2022-07-23T19:42:25;8.65;;;4.85;;
44476;SDS011;30180;44.788;10.366;2022-07-23T19:44:58;7.95;;;4.80;;
44476;SDS011;30180;44.788;10.366;2022-07-23T19:47:26;7.72;;;4.88;;
44476;SDS011;30180;44.788;10.366;2022-07-23T19:49:55;9.13;;;4.93;;
44476;SDS011;30180;44.788;10.366;2022-07-23T19:52:23;5.72;;;4.13;;
44476;SDS011;30180;44.788;10.366;2022-07-23T19:54:51;8.05;;;4.78;;
44476;SDS011;30180;44.788;10.366;2022-07-23T19:57:21;7.85;;;4.70;;
44476;SDS011;30180;44.788;10.366;2022-07-23T19:59:49;7.30;;;4.50;;
44476;SDS011;30180;44.788;10.366;2022-07-23T20:02:17;7.07;;;4.57;;
44476;SDS011;30180;44.788;10.366;2022-07-23T20:04:45;6.45;;;4.00;;
44476;SDS011;30180;44.788;10.366;2022-07-23T20:07:13;7.10;;;4.30;;
44476;SDS011;30180;44.788;10.366;2022-07-23T20:09:42;8.23;;;4.78;;
44476;SDS011;30180;44.788;10.366;2022-07-23T20:12:10;7.57;;;4.38;;
44476;SDS011;30180;44.788;10.366;2022-07-23T20:14:40;7.38;;;4.10;;
44476;SDS011;30180;44.788;10.366;2022-07-23T20:17:08;7.72;;;4.30;;
44476;SDS011;30180;44.788;10.366;2022-07-23T20:19:36;8.63;;;4.50;;
44476;SDS011;30180;44.788;10.366;2022-07-23T20:22:05;6.13;;;4.07;;
44476;SDS011;30180;44.788;10.366;2022-07-23T20:24:33;8.40;;;4.47;;
44476;SDS011;30180;44.788;10.366;2022-07-23T20:27:02;10.95;;;4.53;;
44476;SDS011;30180;44.788;10.366;2022-07-23T20:29:30;7.80;;;4.60;;
44476;SDS011;30180;44.788;10.366;2022-07-23T20:32:01;7.28;;;4.40;;
44476;SDS011;30180;44.788;10.366;2022-07-23T20:34:29;6.90;;;4.18;;
44476;SDS011;30180;44.788;10.366;2022-07-23T20:36:57;8.63;;;4.40;;
44476;SDS011;30180;44.788;10.366;2022-07-23T20:39:26;6.70;;;4.47;;
44476;SDS011;30180;44.788;10.366;2022-07-23T20:41:54;7.45;;;4.28;;
44476;SDS011;30180;44.788;10.366;2022-07-23T20:44:22;6.00;;;4.03;;
44476;SDS011;30180;44.788;10.366;2022-07-23T20:46:50;7.28;;;4.13;;
44476;SDS011;30180;44.788;10.366;2022-07-23T20:49:26;6.85;;;4.32;;
44476;SDS011;30180;44.788;10.366;2022-07-23T20:51:56;10.80;;;4.55;;
44476;SDS011;30180;44.788;10.366;2022-07-23T20:54:24;5.90;;;3.95;;
44476;SDS011;30180;44.788;10.366;2022-07-23T20:56:53;6.72;;;4.22;;
44476;SDS011;30180;44.788;10.366;2022-07-23T20:59:22;6.22;;;4.93;;
44476;SDS011;30180;44.788;10.366;2022-07-23T21:01:56;7.00;;;4.10;;
44476;SDS011;30180;44.788;10.366;2022-07-23T21:04:24;8.30;;;4.40;;
44476;SDS011;30180;44.788;10.366;2022-07-23T21:06:54;7.55;;;4.38;;
44476;SDS011;30180;44.788;10.366;2022-07-23T21:09:22;6.68;;;4.25;;
44476;SDS011;30180;44.788;10.366;2022-07-23T21:11:50;7.30;;;4.63;;
44476;SDS011;30180;44.788;10.366;2022-07-23T21:14:18;7.15;;;4.55;;
44476;SDS011;30180;44.788;10.366;2022-07-23T21:16:46;7.78;;;4.60;;
44476;SDS011;30180;44.788;10.366;2022-07-23T21:19:15;7.45;;;4.35;;
44476;SDS011;30180;44.788;10.366;2022-07-23T21:21:43;7.88;;;4.53;;
44476;SDS011;30180;44.788;10.366;2022-07-23T21:24:13;7.68;;;4.65;;
44476;SDS011;30180;44.788;10.366;2022-07-23T21:26:41;11.65;;;5.00;;
44476;SDS011;30180;44.788;10.366;2022-07-23T21:29:09;5.95;;;4.15;;
44476;SDS011;30180;44.788;10.366;2022-07-23T21:31:37;9.77;;;5.07;;
44476;SDS011;30180;44.788;10.366;2022-07-23T21:34:05;7.60;;;4.47;;
44476;SDS011;30180;44.788;10.366;2022-07-23T21:36:34;8.90;;;4.07;;
44476;SDS011;30180;44.788;10.366;2022-07-23T21:39:02;7.05;;;4.40;;
44476;SDS011;30180;44.788;10.366;2022-07-23T21:41:34;6.85;;;4.72;;
44476;SDS011;30180;44.788;10.366;2022-07-23T21:44:02;6.10;;;4.30;;
44476;SDS011;30180;44.788;10.366;2022-07-23T21:46:31;7.72;;;4.63;;
44476;SDS011;30180;44.788;10.366;2022-07-23T21:49:00;6.78;;;4.55;;
44476;SDS011;30180;44.788;10.366;2022-07-23T21:51:29;6.78;;;4.53;;
44476;SDS011;30180;44.788;10.366;2022-07-23T21:53:58;6.65;;;4.53;;
44476;SDS011;30180;44.788;10.366;2022-07-23T21:56:26;7.05;;;4.65;;
44476;SDS011;30180;44.788;10.366;2022-07-23T21:58:56;6.85;;;4.72;;
44476;SDS011;30180;44.788;10.366;2022-07-23T22:01:24;7.83;;;4.47;;
44476;SDS011;30180;44.788;10.366;2022-07-23T22:03:53;7.30;;;4.10;;
44476;SDS011;30180;44.788;10.366;2022-07-23T22:06:21;6.93;;;4.10;;
44476;SDS011;30180;44.788;10.366;2022-07-23T22:08:50;6.00;;;4.43;;
44476;SDS011;30180;44.788;10.366;2022-07-23T22:11:18;6.20;;;4.70;;
44476;SDS011;30180;44.788;10.366;2022-07-23T22:13:46;7.35;;;4.60;;
44476;SDS011;30180;44.788;10.366;2022-07-23T22:16:16;9.02;;;5.03;;
44476;SDS011;30180;44.788;10.366;2022-07-23T22:18:44;7.13;;;4.80;;
44476;SDS011;30180;44.788;10.366;2022-07-23T22:21:12;6.53;;;4.65;;
44476;SDS011;30180;44.788;10.366;2022-07-23T22:24:01;6.65;;;4.97;;
44476;SDS011;30180;44.788;10.366;2022-07-23T22:26:29;9.10;;;4.53;;
44476;SDS011;30180;44.788;10.366;2022-07-23T22:28:57;7.53;;;5.45;;
44476;SDS011;30180;44.788;10.366;2022-07-23T22:31:27;7.30;;;4.90;;
44476;SDS011;30180;44.788;10.366;2022-07-23T22:33:56;7.47;;;4.87;;
44476;SDS011;30180;44.788;10.366;2022-07-23T22:36:24;6.70;;;4.50;;
44476;SDS011;30180;44.788;10.366;2022-07-23T22:38:52;8.90;;;5.45;;
44476;SDS011;30180;44.788;10.366;2022-07-23T22:41:20;8.15;;;4.97;;
44476;SDS011;30180;44.788;10.366;2022-07-23T22:43:49;7.80;;;4.72;;
44476;SDS011;30180;44.788;10.366;2022-07-23T22:46:17;8.70;;;5.03;;
44476;SDS011;30180;44.788;10.366;2022-07-23T22:48:47;7.60;;;5.53;;
44476;SDS011;30180;44.788;10.366;2022-07-23T22:51:15;6.87;;;4.80;;
44476;SDS011;30180;44.788;10.366;2022-07-23T22:53:46;8.32;;;4.72;;
44476;SDS011;30180;44.788;10.366;2022-07-23T22:56:15;7.35;;;5.43;;
44476;SDS011;30180;44.788;10.366;2022-07-23T22:58:43;8.25;;;5.22;;
44476;SDS011;30180;44.788;10.366;2022-07-23T23:01:15;7.43;;;5.13;;
44476;SDS011;30180;44.788;10.366;2022-07-23T23:03:43;8.15;;;4.90;;
44476;SDS011;30180;44.788;10.366;2022-07-23T23:06:13;8.77;;;5.32;;
44476;SDS011;30180;44.788;10.366;2022-07-23T23:08:41;7.32;;;5.28;;
44476;SDS011;30180;44.788;10.366;2022-07-23T23:11:10;8.35;;;5.25;;
44476;SDS011;30180;44.788;10.366;2022-07-23T23:13:38;8.02;;;5.40;;
44476;SDS011;30180;44.788;10.366;2022-07-23T23:16:06;8.13;;;5.22;;
44476;SDS011;30180;44.788;10.366;2022-07-23T23:18:35;9.25;;;5.07;;
44476;SDS011;30180;44.788;10.366;2022-07-23T23:21:03;6.10;;;4.68;;
44476;SDS011;30180;44.788;10.366;2022-07-23T23:23:32;7.40;;;4.72;;
44476;SDS011;30180;44.788;10.366;2022-07-23T23:26:01;9.98;;;5.30;;
44476;SDS011;30180;44.788;10.366;2022-07-23T23:28:29;7.30;;;5.65;;
44476;SDS011;30180;44.788;10.366;2022-07-23T23:30:57;7.93;;;4.93;;
44476;SDS011;30180;44.788;10.366;2022-07-23T23:33:26;7.13;;;5.40;;
44476;SDS011;30180;44.788;10.366;2022-07-23T23:35:54;7.55;;;5.07;;
44476;SDS011;30180;44.788;10.366;2022-07-23T23:38:22;8.15;;;5.00;;
44476;SDS011;30180;44.788;10.366;2022-07-23T23:40:52;7.88;;;5.00;;
44476;SDS011;30180;44.788;10.366;2022-07-23T23:43:20;7.47;;;5.30;;
44476;SDS011;30180;44.788;10.366;2022-07-23T23:45:48;7.70;;;5.07;;
44476;SDS011;30180;44.788;10.366;2022-07-23T23:48:17;6.53;;;4.95;;
44476;SDS011;30180;44.788;10.366;2022-07-23T23:50:45;9.45;;;5.45;;
44476;SDS011;30180;44.788;10.366;2022-07-23T23:53:13;7.03;;;4.95;;
44476;SDS011;30180;44.788;10.366;2022-07-23T23:55:41;7.20;;;5.18;;
44476;SDS011;30180;44.788;10.366;2022-07-23T23:58:11;7.38;;;5.25;;
